Time;durP1;ratioP1;P1;durP2;ratioP2;P2;SDS_P1;SDS_P2;PMS_P1;PMS_P2;Temp;Humidity;BMP_temperature;BMP_pressure;BME280_temperature;BME280_humidity;BME280_pressure;Samples;Min_cycle;Max_cycle;Signal;HPM_P1;HPM_P2
2021/11/30 00:01:18;;;;;;;12.05;8.02;;;;;;;3.52;95.53;100100.25;5013211;28;20045;-52
2021/11/30 00:03:45;;;;;;;14.77;8.95;;;;;;;3.51;95.73;100109.88;5011966;28;20045;-51
2021/11/30 00:06:12;;;;;;;17.77;8.77;;;;;;;3.56;95.55;100114.16;5006853;28;20054;-53
2021/11/30 00:08:39;;;;;;;17.02;9.02;;;;;;;3.57;95.02;100111.50;5008796;28;20050;-52
2021/11/30 00:11:09;;;;;;;13.95;8.02;;;;;;;3.59;95.16;100114.94;5010535;28;20097;-53
2021/11/30 00:13:37;;;;;;;12.38;7.72;;;;;;;3.69;93.78;100116.44;5012238;28;20427;-53
2021/11/30 00:16:04;;;;;;;12.05;7.85;;;;;;;3.69;93.09;100100.72;5007758;28;20441;-52
2021/11/30 00:18:32;;;;;;;12.52;7.32;;;;;;;3.73;92.19;100096.28;5011566;28;20049;-52
2021/11/30 00:21:03;;;;;;;14.88;7.72;;;;;;;3.69;92.10;100087.63;5014529;28;20050;-51
2021/11/30 00:23:30;;;;;;;17.75;7.88;;;;;;;3.64;92.76;100094.72;5014245;28;20050;-52
2021/11/30 00:25:57;;;;;;;13.82;7.18;;;;;;;3.63;93.00;100102.63;5011904;28;20574;-52
2021/11/30 00:28:23;;;;;;;12.38;7.15;;;;;;;3.64;92.49;100093.88;5013483;28;20570;-54
2021/11/30 00:30:50;;;;;;;12.65;6.90;;;;;;;3.65;91.68;100088.59;5016499;28;20091;-52
2021/11/30 00:33:17;;;;;;;11.60;6.43;;;;;;;3.66;91.15;100097.31;5016379;28;20055;-53
2021/11/30 00:35:44;;;;;;;9.98;6.20;;;;;;;3.65;91.92;100098.22;5015817;28;20049;-57
2021/11/30 00:38:13;;;;;;;12.27;5.88;;;;;;;3.61;91.51;100091.34;5019998;28;20045;-54
2021/11/30 00:40:41;;;;;;;13.15;6.22;;;;;;;3.66;91.50;100100.78;5024329;28;20176;-58
2021/11/30 00:43:09;;;;;;;8.40;5.75;;;;;;;3.67;90.78;100101.66;5024154;28;20049;-52
2021/11/30 00:45:39;;;;;;;10.20;5.68;;;;;;;3.56;90.97;100077.50;5014981;28;20052;-55
2021/11/30 00:48:08;;;;;;;10.20;5.40;;;;;;;3.76;89.72;100102.31;5019269;28;20045;-53
2021/11/30 00:50:42;;;;;;;11.57;6.10;;;;;;;3.75;89.52;100099.72;5016700;28;20034;-53
2021/11/30 00:53:10;;;;;;;12.48;5.32;;;;;;;3.70;89.90;100099.84;5017945;28;20049;-57
2021/11/30 00:55:37;;;;;;;9.65;4.88;;;;;;;3.68;89.60;100112.09;5014242;28;20067;-54
2021/11/30 00:58:04;;;;;;;10.55;5.32;;;;;;;3.66;89.72;100107.78;5013308;28;20049;-51
2021/11/30 01:00:35;;;;;;;10.07;4.80;;;;;;;3.62;89.86;100099.13;5018582;28;20060;-52
2021/11/30 01:03:05;;;;;;;11.45;5.00;;;;;;;3.64;89.39;100104.34;5011779;28;20053;-52
2021/11/30 01:05:33;;;;;;;10.60;4.88;;;;;;;3.67;89.59;100110.38;5004430;28;20076;-53
2021/11/30 01:08:00;;;;;;;9.98;4.57;;;;;;;3.70;89.04;100110.31;5018194;28;20499;-52
2021/11/30 01:10:27;;;;;;;8.90;4.93;;;;;;;3.74;88.09;100101.50;5017514;28;20157;-55
2021/11/30 01:12:53;;;;;;;12.23;5.22;;;;;;;3.81;87.43;100105.66;5020529;28;20132;-52
2021/11/30 01:15:21;;;;;;;8.35;4.53;;;;;;;3.81;87.57;100107.41;5015504;28;20042;-51
2021/11/30 01:17:48;;;;;;;11.77;4.75;;;;;;;3.85;87.17;100115.19;5018100;28;20072;-54
2021/11/30 01:20:16;;;;;;;12.32;4.97;;;;;;;3.84;86.85;100109.97;5013069;28;20045;-52
2021/11/30 01:22:44;;;;;;;8.80;5.03;;;;;;;3.88;85.89;100109.00;5015530;28;20056;-52
2021/11/30 01:25:11;;;;;;;13.52;5.43;;;;;;;3.88;86.94;100116.88;5017246;28;20498;-52
2021/11/30 01:27:38;;;;;;;10.32;4.97;;;;;;;3.88;86.10;100114.25;5013886;28;20121;-52
2021/11/30 01:30:07;;;;;;;9.43;4.60;;;;;;;3.95;85.64;100118.41;5007240;28;20525;-52
2021/11/30 01:32:34;;;;;;;6.82;4.95;;;;;;;3.78;85.99;100095.25;5016956;28;20473;-52
2021/11/30 01:35:00;;;;;;;10.05;4.72;;;;;;;3.88;85.39;100122.09;5012302;28;20057;-51
2021/11/30 01:37:27;;;;;;;12.10;4.40;;;;;;;3.87;86.01;100121.25;5005479;28;20049;-53
2021/11/30 01:39:54;;;;;;;9.55;4.70;;;;;;;3.88;85.19;100116.88;5014786;28;20049;-51
2021/11/30 01:42:21;;;;;;;8.23;4.35;;;;;;;3.88;85.14;100106.38;5013084;28;20554;-53
2021/11/30 01:44:49;;;;;;;7.00;4.82;;;;;;;3.87;85.46;100109.91;5010131;28;20052;-53
2021/11/30 01:47:25;;;;;;;9.38;4.88;;;;;;;3.90;84.92;100116.84;5004119;28;20049;-52
2021/11/30 01:49:52;;;;;;;9.88;5.13;;;;;;;3.84;85.32;100115.22;5011019;28;20049;-51
2021/11/30 01:52:19;;;;;;;10.57;5.25;;;;;;;3.87;85.07;100112.53;5011714;28;20049;-53
2021/11/30 01:54:46;;;;;;;11.15;4.63;;;;;;;3.89;84.79;100123.84;5006791;28;20145;-57
2021/11/30 01:57:15;;;;;;;8.43;4.63;;;;;;;3.88;84.85;100129.97;5008833;28;20037;-53
2021/11/30 01:59:43;;;;;;;8.40;4.50;;;;;;;3.90;83.79;100132.56;5012905;28;20044;-55
2021/11/30 02:02:11;;;;;;;8.02;4.45;;;;;;;3.93;83.78;100132.47;5011422;28;20471;-52
2021/11/30 02:04:38;;;;;;;8.32;4.43;;;;;;;3.95;83.25;100133.28;5012275;28;20065;-51
2021/11/30 02:07:05;;;;;;;7.18;3.90;;;;;;;3.92;83.20;100130.75;5006411;28;20056;-53
2021/11/30 02:09:32;;;;;;;7.00;3.72;;;;;;;3.97;82.48;100136.72;5010077;28;20038;-54
2021/11/30 02:11:58;;;;;;;8.65;3.70;;;;;;;4.06;81.50;100123.41;5014453;28;20057;-52
2021/11/30 02:14:25;;;;;;;6.43;3.70;;;;;;;4.03;80.99;100128.72;5013334;28;20045;-53
2021/11/30 02:16:53;;;;;;;7.03;3.53;;;;;;;4.05;81.08;100137.41;5007869;28;20042;-54
2021/11/30 02:19:19;;;;;;;10.13;4.03;;;;;;;4.05;80.95;100140.03;5012224;28;20042;-53
2021/11/30 02:21:46;;;;;;;6.45;3.65;;;;;;;4.04;80.43;100143.56;5012592;28;20053;-52
2021/11/30 02:24:13;;;;;;;9.10;3.55;;;;;;;4.10;80.36;100135.53;5012984;28;20060;-54
2021/11/30 02:26:41;;;;;;;9.20;3.50;;;;;;;4.06;80.21;100132.16;5007290;28;20053;-53
2021/11/30 02:29:09;;;;;;;6.90;3.47;;;;;;;3.92;80.41;100100.19;5008898;28;20045;-52
2021/11/30 02:31:38;;;;;;;7.35;3.60;;;;;;;3.95;80.62;100128.91;5012754;28;20046;-53
2021/11/30 02:34:05;;;;;;;8.00;3.50;;;;;;;3.96;80.53;100129.75;5011278;28;20423;-51
2021/11/30 02:36:48;;;;;;;5.20;2.83;;;;;;;3.99;80.62;100113.97;5007383;28;20407;-54
2021/11/30 02:39:18;;;;;;;9.85;2.90;;;;;;;3.96;80.20;100109.66;5010918;28;20048;-52
2021/11/30 02:41:46;;;;;;;6.78;3.15;;;;;;;3.99;79.11;100116.59;5013986;28;20135;-52
2021/11/30 02:44:15;;;;;;;5.45;3.17;;;;;;;3.93;79.58;100106.28;5013209;28;20049;-53
2021/11/30 02:46:48;;;;;;;6.35;2.88;;;;;;;3.82;79.50;100090.81;5007552;28;20050;-52
2021/11/30 02:49:17;;;;;;;6.85;2.60;;;;;;;3.94;79.50;100105.34;5015004;28;20041;-54
2021/11/30 02:51:47;;;;;;;7.50;2.97;;;;;;;3.91;79.71;100081.88;5012798;28;20480;-53
2021/11/30 02:54:16;;;;;;;5.82;2.85;;;;;;;3.82;79.68;100078.56;5011835;28;20042;-52
2021/11/30 02:56:50;;;;;;;4.38;2.50;;;;;;;3.77;80.18;100084.84;5004990;28;20057;-52
2021/11/30 02:59:16;;;;;;;10.98;2.83;;;;;;;3.76;78.77;100086.59;5011507;28;20045;-52
2021/11/30 03:01:52;;;;;;;4.72;2.80;;;;;;;3.69;79.37;100058.81;5007774;28;22563;-53
2021/11/30 03:04:19;;;;;;;6.20;2.80;;;;;;;3.80;78.45;100075.13;5015098;28;20046;-52
2021/11/30 03:06:45;;;;;;;3.35;2.20;;;;;;;3.86;77.43;100074.13;5013870;28;20041;-53
2021/11/30 03:09:12;;;;;;;4.63;2.67;;;;;;;3.86;78.06;100059.28;5007816;28;20046;-52
2021/11/30 03:11:39;;;;;;;6.82;2.65;;;;;;;3.81;77.34;100047.19;5013011;28;20049;-53
2021/11/30 03:14:06;;;;;;;4.55;2.28;;;;;;;3.79;78.02;100043.75;5009691;28;20046;-53
2021/11/30 03:16:34;;;;;;;5.07;2.50;;;;;;;3.75;77.90;100042.13;5006917;28;20072;-52
2021/11/30 03:19:03;;;;;;;5.13;2.25;;;;;;;3.68;76.44;100046.63;5007561;28;20045;-51
2021/11/30 03:21:30;;;;;;;7.32;2.33;;;;;;;3.64;77.39;100054.59;5014715;28;20054;-53
2021/11/30 03:23:56;;;;;;;6.50;2.30;;;;;;;3.66;77.53;100050.19;5006911;28;20050;-52
2021/11/30 03:26:23;;;;;;;3.95;2.40;;;;;;;3.69;76.72;100043.13;5009648;28;20055;-53
2021/11/30 03:28:49;;;;;;;4.05;2.42;;;;;;;3.63;76.82;100038.00;5005249;28;20578;-52
2021/11/30 03:31:47;;;;;;;6.32;2.33;;;;;;;3.54;76.88;100025.16;5013983;28;20045;-52
2021/11/30 03:34:09;;;;;;;5.30;2.60;;;;;;;3.64;76.98;100034.50;5015191;28;20146;-53
2021/11/30 03:36:38;;;;;;;5.30;2.50;;;;;;;3.62;77.12;100032.84;5012298;28;20056;-54
2021/11/30 03:39:13;;;;;;;5.77;2.67;;;;;;;3.57;77.98;100032.09;5009828;28;20119;-53
2021/11/30 03:41:41;;;;;;;4.97;2.60;;;;;;;3.59;77.10;100035.53;5016369;28;20057;-53
2021/11/30 03:44:09;;;;;;;5.53;2.67;;;;;;;3.58;77.47;100021.59;5011562;28;20049;-53
2021/11/30 03:46:40;;;;;;;7.95;2.83;;;;;;;3.57;77.33;100019.84;5008631;28;20598;-52
2021/11/30 03:49:08;;;;;;;4.75;2.50;;;;;;;3.55;77.20;100021.66;5007664;28;20060;-53
2021/11/30 03:51:35;;;;;;;8.07;2.78;;;;;;;3.52;77.68;100029.56;5014938;28;20878;-52
2021/11/30 03:54:03;;;;;;;6.63;2.88;;;;;;;3.57;76.85;100032.94;5011321;28;20495;-52
2021/11/30 03:56:30;;;;;;;6.60;2.65;;;;;;;3.50;77.42;100037.47;5006396;28;20482;-53
2021/11/30 03:59:00;;;;;;;5.07;2.92;;;;;;;3.48;78.24;100027.91;5008556;28;20057;-54
2021/11/30 04:01:27;;;;;;;9.05;3.08;;;;;;;3.50;77.65;100026.13;5018708;28;20152;-53
2021/11/30 04:03:56;;;;;;;6.85;3.10;;;;;;;3.50;77.28;100027.00;5019348;28;20041;-54
2021/11/30 04:06:24;;;;;;;4.30;2.92;;;;;;;3.46;78.29;100024.50;5012465;28;20041;-52
2021/11/30 04:08:51;;;;;;;7.00;3.15;;;;;;;3.46;78.32;100021.88;5008016;28;20041;-52
2021/11/30 04:11:20;;;;;;;6.18;2.90;;;;;;;3.44;79.29;100008.84;5016499;28;20045;-51
2021/11/30 04:13:48;;;;;;;8.30;3.10;;;;;;;3.38;79.64;100015.97;5017696;28;20050;-52
2021/11/30 04:16:15;;;;;;;6.18;3.50;;;;;;;3.31;80.66;100003.91;5013714;28;20060;-53
2021/11/30 04:18:41;;;;;;;7.28;3.63;;;;;;;3.24;81.06;99997.09;5008115;28;20049;-52
2021/11/30 04:21:08;;;;;;;7.63;3.55;;;;;;;3.23;81.69;99987.53;5013686;28;20046;-54
2021/11/30 04:23:34;;;;;;;6.70;3.78;;;;;;;3.22;82.19;99988.44;5008712;28;20446;-53
2021/11/30 04:26:01;;;;;;;9.05;3.95;;;;;;;3.18;82.77;99978.03;5018532;28;20041;-52
2021/11/30 04:28:27;;;;;;;7.18;3.83;;;;;;;3.13;83.87;99969.44;5009286;28;20065;-53
2021/11/30 04:30:54;;;;;;;9.48;3.63;;;;;;;3.08;84.64;99962.59;5014358;28;20515;-51
2021/11/30 04:33:21;;;;;;;7.57;3.63;;;;;;;3.11;85.02;99960.78;5014918;28;20059;-52
2021/11/30 04:35:48;;;;;;;5.78;3.38;;;;;;;3.09;85.39;99952.09;5014423;28;20496;-51
2021/11/30 04:38:15;;;;;;;6.93;4.07;;;;;;;3.07;85.37;99956.50;5006214;28;20080;-52
2021/11/30 04:40:41;;;;;;;8.75;4.43;;;;;;;2.94;86.17;99922.81;5012538;28;20049;-53
2021/11/30 04:43:08;;;;;;;6.68;4.47;;;;;;;3.04;86.78;99943.50;5016547;28;20049;-54
2021/11/30 04:48:23;;;;;;;9.45;4.20;;;;;;;2.87;88.84;99932.56;5007444;28;20140;-53
2021/11/30 04:50:52;;;;;;;9.10;5.53;;;;;;;2.80;91.14;99925.75;5013455;28;20045;-52
2021/11/30 04:53:24;;;;;;;10.95;6.22;;;;;;;2.63;94.12;99920.91;5010932;28;20045;-53
2021/11/30 04:55:51;;;;;;;7.05;5.03;;;;;;;2.67;94.00;99922.56;5014479;28;20057;-54
2021/11/30 04:58:19;;;;;;;12.35;6.10;;;;;;;2.57;95.91;99917.56;5009676;28;20044;-51
2021/11/30 05:00:47;;;;;;;11.95;6.10;;;;;;;2.52;97.67;99916.81;5012500;28;20048;-52
2021/11/30 05:03:15;;;;;;;12.05;6.85;;;;;;;2.46;99.28;99912.59;5020876;28;20108;-53
2021/11/30 05:05:43;;;;;;;13.15;6.82;;;;;;;2.42;99.55;99890.88;5016663;28;20069;-53
2021/11/30 05:08:09;;;;;;;14.05;7.00;;;;;;;2.38;100.00;99889.22;5010380;28;20050;-53
2021/11/30 05:10:36;;;;;;;13.55;6.65;;;;;;;2.37;100.00;99879.66;5014476;28;20105;-50
2021/11/30 05:13:02;;;;;;;15.07;7.60;;;;;;;2.37;100.00;99873.56;5012339;28;20058;-52
2021/11/30 05:15:29;;;;;;;14.05;7.95;;;;;;;2.35;100.00;99871.03;5014450;28;20042;-55
2021/11/30 05:17:55;;;;;;;11.23;6.80;;;;;;;2.35;100.00;99868.41;5007923;28;20045;-53
2021/11/30 05:20:22;;;;;;;11.40;7.28;;;;;;;2.28;100.00;99845.91;5009553;28;20094;-52
2021/11/30 05:22:51;;;;;;;14.65;7.32;;;;;;;2.42;100.00;99872.59;5015964;28;20459;-53
2021/11/30 05:25:21;;;;;;;11.55;6.90;;;;;;;2.41;100.00;99856.94;5012597;28;20136;-52
2021/11/30 05:27:49;;;;;;;14.65;7.25;;;;;;;2.48;100.00;99842.84;5007860;28;20160;-52
2021/11/30 05:30:19;;;;;;;14.35;7.85;;;;;;;2.42;100.00;99853.44;5008435;28;20049;-52
2021/11/30 05:32:49;;;;;;;14.85;7.63;;;;;;;2.45;100.00;99849.00;5019889;28;20622;-52
2021/11/30 05:35:16;;;;;;;11.40;8.50;;;;;;;2.42;100.00;99843.84;5013360;28;20074;-53
2021/11/30 05:37:43;;;;;;;13.75;9.27;;;;;;;2.39;100.00;99858.72;5010240;28;20064;-53
2021/11/30 05:40:10;;;;;;;18.77;9.82;;;;;;;2.29;100.00;99839.78;5009508;28;20077;-53
2021/11/30 05:42:36;;;;;;;20.17;10.27;;;;;;;2.33;100.00;99854.50;5016787;28;20069;-51
2021/11/30 05:45:03;;;;;;;14.95;8.73;;;;;;;2.35;100.00;99854.47;5013092;28;20140;-53
2021/11/30 05:47:30;;;;;;;17.25;9.18;;;;;;;2.36;100.00;99845.75;5011398;28;20607;-53
2021/11/30 05:49:57;;;;;;;15.32;9.20;;;;;;;2.35;100.00;99842.28;5011249;28;20121;-52
2021/11/30 05:52:23;;;;;;;10.55;6.93;;;;;;;2.44;100.00;99836.84;5013785;28;20045;-52
2021/11/30 05:54:50;;;;;;;13.45;8.27;;;;;;;2.42;100.00;99835.13;5013343;28;20045;-54
2021/11/30 05:57:21;;;;;;;13.50;8.40;;;;;;;2.40;100.00;99823.84;5010727;28;20072;-52
2021/11/30 05:59:49;;;;;;;14.70;8.57;;;;;;;2.39;100.00;99824.75;5011916;28;20038;-51
2021/11/30 06:02:18;;;;;;;15.57;9.70;;;;;;;2.37;100.00;99822.16;5015479;28;20046;-52
2021/11/30 06:04:45;;;;;;;14.18;8.80;;;;;;;2.36;100.00;99815.22;5012232;28;20073;-52
2021/11/30 06:07:12;;;;;;;14.77;8.88;;;;;;;2.36;100.00;99807.38;5015694;28;20220;-52
2021/11/30 06:09:38;;;;;;;12.82;7.97;;;;;;;2.37;100.00;99798.66;5012479;28;20065;-51
2021/11/30 06:12:05;;;;;;;12.98;7.50;;;;;;;2.32;100.00;99795.31;5016208;28;20483;-53
2021/11/30 06:14:32;;;;;;;11.05;7.25;;;;;;;2.37;100.00;99792.56;5014430;28;20053;-51
2021/11/30 06:16:58;;;;;;;12.85;7.55;;;;;;;2.30;100.00;99806.69;5009327;28;20045;-51
2021/11/30 06:19:25;;;;;;;12.50;8.70;;;;;;;2.24;100.00;99792.00;5010333;28;20052;-56
2021/11/30 06:21:51;;;;;;;14.05;8.32;;;;;;;2.24;100.00;99788.53;5009917;28;20057;-52
2021/11/30 06:24:18;;;;;;;13.77;7.65;;;;;;;2.24;100.00;99763.25;5012091;28;20054;-50
2021/11/30 06:26:45;;;;;;;13.60;8.57;;;;;;;2.21;100.00;99773.78;5011918;28;20388;-51
2021/11/30 06:29:11;;;;;;;14.93;8.25;;;;;;;2.18;100.00;99760.81;5002876;28;20205;-56
2021/11/30 06:31:38;;;;;;;11.55;7.80;;;;;;;2.17;100.00;99769.53;5009734;28;20519;-53
2021/11/30 06:34:05;;;;;;;10.30;6.82;;;;;;;2.22;100.00;99766.81;5014322;28;20120;-52
2021/11/30 06:36:31;;;;;;;14.32;8.60;;;;;;;2.16;100.00;99765.22;5012031;28;20052;-53
2021/11/30 06:38:58;;;;;;;12.05;7.88;;;;;;;2.13;100.00;99770.50;5006426;28;20041;-53
2021/11/30 06:41:26;;;;;;;8.95;6.57;;;;;;;2.13;100.00;99753.97;5013885;28;20041;-52
2021/11/30 06:43:52;;;;;;;8.65;7.05;;;;;;;2.12;100.00;99766.16;5013111;28;20042;-51
2021/11/30 06:46:21;;;;;;;10.95;7.47;;;;;;;2.09;100.00;99756.66;5019718;28;20521;-52
2021/11/30 06:48:48;;;;;;;12.52;8.25;;;;;;;2.10;100.00;99752.28;5005247;28;20054;-54
2021/11/30 06:51:15;;;;;;;12.50;8.75;;;;;;;2.07;100.00;99774.09;5004129;28;20059;-52
2021/11/30 06:53:42;;;;;;;12.38;8.52;;;;;;;2.06;100.00;99768.91;5004809;28;20045;-51
2021/11/30 06:56:10;;;;;;;13.48;8.00;;;;;;;2.10;100.00;99766.19;5004984;28;20570;-52
2021/11/30 06:58:37;;;;;;;12.40;7.82;;;;;;;2.11;100.00;99743.56;5000620;28;20049;-52
2021/11/30 07:01:04;;;;;;;10.90;7.75;;;;;;;2.15;100.00;99746.97;5006708;28;20052;-53
2021/11/30 07:03:31;;;;;;;11.10;6.60;;;;;;;2.23;100.00;99768.53;5007170;28;20141;-53
2021/11/30 07:06:40;;;;;;;10.13;6.38;;;;;;;2.19;100.00;99752.09;5005051;28;20045;-51
2021/11/30 07:09:13;;;;;;;10.52;7.57;;;;;;;2.14;100.00;99743.50;4998905;28;20046;-53
2021/11/30 07:14:13;;;;;;;9.90;6.70;;;;;;;2.18;100.00;99739.91;5004193;28;20041;-54
2021/11/30 07:16:40;;;;;;;9.65;6.45;;;;;;;2.19;100.00;99756.44;5005806;28;20410;-54
2021/11/30 07:19:11;;;;;;;8.65;6.22;;;;;;;2.09;100.00;99737.50;5001695;28;20041;-52
2021/11/30 07:21:38;;;;;;;8.57;6.20;;;;;;;2.17;100.00;99747.78;5000667;28;20518;-53
2021/11/30 07:24:05;;;;;;;8.13;6.18;;;;;;;2.11;100.00;99736.56;5005564;28;20541;-53
2021/11/30 07:26:31;;;;;;;9.52;6.90;;;;;;;2.09;100.00;99735.75;5008280;28;20097;-55
2021/11/30 07:28:59;;;;;;;8.50;6.55;;;;;;;2.17;100.00;99751.25;4995131;28;20049;-53
2021/11/30 07:31:27;;;;;;;8.10;6.38;;;;;;;2.19;100.00;99759.06;5006490;28;20050;-56
2021/11/30 07:33:53;;;;;;;8.63;6.60;;;;;;;2.16;100.00;99760.00;5008756;28;20041;-52
2021/11/30 07:36:20;;;;;;;9.80;6.50;;;;;;;2.18;100.00;99760.81;5005936;28;20041;-53
2021/11/30 07:38:48;;;;;;;8.48;5.93;;;;;;;2.28;100.00;99758.84;5000021;28;20072;-53
2021/11/30 07:41:16;;;;;;;8.15;5.72;;;;;;;2.24;100.00;99754.56;5011326;28;20430;-51
2021/11/30 07:43:43;;;;;;;8.80;6.05;;;;;;;2.24;100.00;99750.19;5007736;28;20042;-54
2021/11/30 07:46:09;;;;;;;8.43;5.97;;;;;;;2.24;100.00;99754.56;5005865;28;20055;-54
2021/11/30 07:48:36;;;;;;;7.18;5.78;;;;;;;2.22;100.00;99769.41;5002376;28;20515;-52
2021/11/30 07:51:05;;;;;;;6.82;5.72;;;;;;;2.29;100.00;99761.41;5002559;28;20068;-51
2021/11/30 07:53:31;;;;;;;6.78;5.60;;;;;;;2.21;100.00;99760.72;5003826;28;20054;-53
2021/11/30 07:55:58;;;;;;;6.72;5.53;;;;;;;2.23;100.00;99756.31;5007469;28;20051;-52
2021/11/30 07:58:25;;;;;;;5.60;4.85;;;;;;;2.23;100.00;99748.50;5004548;28;20045;-52
2021/11/30 08:00:52;;;;;;;7.50;5.28;;;;;;;2.29;100.00;99748.34;5007109;28;20402;-51
2021/11/30 08:03:20;;;;;;;5.88;4.85;;;;;;;2.29;100.00;99742.28;5002680;28;20514;-52
2021/11/30 08:05:47;;;;;;;7.28;5.70;;;;;;;2.29;100.00;99747.50;5006047;28;20081;-54
2021/11/30 08:08:13;;;;;;;7.55;5.30;;;;;;;2.31;100.00;99732.66;5007293;28;20046;-52
2021/11/30 08:10:40;;;;;;;5.10;4.03;;;;;;;2.37;100.00;99729.88;5008100;28;20050;-53
2021/11/30 08:13:06;;;;;;;4.82;4.25;;;;;;;2.40;100.00;99730.66;5002816;28;20081;-53
2021/11/30 08:15:34;;;;;;;7.28;4.13;;;;;;;2.38;100.00;99722.00;5002803;28;20087;-53
2021/11/30 08:18:01;;;;;;;5.95;4.57;;;;;;;2.32;100.00;99732.59;5002017;28;20052;-52
2021/11/30 08:20:28;;;;;;;5.05;4.18;;;;;;;2.35;100.00;99723.84;5007404;28;20050;-56
2021/11/30 08:22:55;;;;;;;6.90;4.47;;;;;;;2.34;100.00;99727.34;5006886;28;20579;-54
2021/11/30 08:25:22;;;;;;;5.45;4.15;;;;;;;2.32;100.00;99722.16;5013043;28;20499;-52
2021/11/30 08:27:50;;;;;;;7.00;4.35;;;;;;;2.37;100.00;99704.59;5013466;28;20049;-54
2021/11/30 08:30:37;;;;;;;6.50;3.58;;;;;;;2.47;100.00;99718.31;5009528;28;20045;-51
2021/11/30 08:33:04;;;;;;;6.13;3.88;;;;;;;2.46;100.00;99706.13;5011565;28;20124;-52
2021/11/30 08:35:31;;;;;;;5.65;3.40;;;;;;;2.37;100.00;99699.38;5008736;28;20046;-52
2021/11/30 08:37:58;;;;;;;4.25;2.85;;;;;;;2.52;100.00;99705.13;5006463;28;20455;-53
2021/11/30 08:40:24;;;;;;;5.30;3.58;;;;;;;2.52;100.00;99712.97;5004198;28;20404;-53
2021/11/30 08:42:51;;;;;;;3.95;2.78;;;;;;;2.53;100.00;99704.22;5008604;28;20045;-52
2021/11/30 08:45:17;;;;;;;4.50;2.85;;;;;;;2.42;100.00;99688.81;5008639;28;20056;-52
2021/11/30 08:47:44;;;;;;;3.75;3.10;;;;;;;2.52;100.00;99705.97;5006630;28;20065;-52
2021/11/30 08:50:14;;;;;;;4.07;3.05;;;;;;;2.59;100.00;99694.47;5003350;28;20045;-52
2021/11/30 08:52:43;;;;;;;3.17;2.75;;;;;;;2.64;100.00;99712.66;5009995;28;20387;-54
2021/11/30 08:55:11;;;;;;;3.20;2.47;;;;;;;2.68;100.00;99722.97;5011207;28;20049;-52
2021/11/30 08:57:38;;;;;;;2.15;1.85;;;;;;;2.72;100.00;99713.31;5008193;28;20053;-53
2021/11/30 09:00:12;;;;;;;2.35;2.15;;;;;;;2.77;100.00;99714.91;5009109;28;20043;-54
2021/11/30 09:02:39;;;;;;;1.98;1.73;;;;;;;2.78;100.00;99698.34;5013305;28;20046;-54
2021/11/30 09:05:07;;;;;;;3.10;2.20;;;;;;;2.81;100.00;99702.63;5007413;28;20049;-53
2021/11/30 09:07:34;;;;;;;3.78;2.08;;;;;;;2.83;100.00;99697.34;5010161;28;20325;-54
2021/11/30 09:10:00;;;;;;;3.58;1.88;;;;;;;2.85;100.00;99687.69;5010707;28;20683;-54
2021/11/30 09:12:27;;;;;;;2.47;2.08;;;;;;;2.85;100.00;99674.63;5011885;28;20060;-54
2021/11/30 09:14:54;;;;;;;6.05;1.80;;;;;;;2.87;100.00;99678.06;5013457;28;20045;-52
2021/11/30 09:17:41;;;;;;;1.88;1.60;;;;;;;2.82;100.00;99667.75;5014908;28;20112;-52
2021/11/30 09:20:09;;;;;;;1.55;1.45;;;;;;;2.85;100.00;99674.63;5007900;28;20050;-53
2021/11/30 09:22:37;;;;;;;2.70;1.33;;;;;;;2.91;100.00;99685.78;5012521;28;20050;-50
2021/11/30 09:25:05;;;;;;;1.70;1.30;;;;;;;2.90;100.00;99683.19;5014880;28;20059;-53
2021/11/30 09:27:36;;;;;;;1.90;1.38;;;;;;;2.78;100.00;99660.88;5013219;28;20049;-53
2021/11/30 09:30:06;;;;;;;1.67;1.40;;;;;;;2.90;100.00;99672.75;5010905;28;20052;-54
2021/11/30 09:32:32;;;;;;;2.55;1.55;;;;;;;2.95;100.00;99673.47;5019116;28;20498;-51
2021/11/30 09:35:07;;;;;;;2.55;1.77;;;;;;;2.96;100.00;99675.19;5013754;28;20049;-53
2021/11/30 09:37:37;;;;;;;2.90;1.70;;;;;;;2.97;100.00;99675.16;5013281;28;20052;-51
2021/11/30 09:40:10;;;;;;;1.58;1.08;;;;;;;2.98;100.00;99648.13;5009782;28;20477;-52
2021/11/30 09:42:36;;;;;;;2.47;1.42;;;;;;;2.98;100.00;99661.19;5009460;28;20055;-52
2021/11/30 09:45:05;;;;;;;1.52;1.30;;;;;;;2.98;100.00;99660.34;5022221;28;20446;-53
2021/11/30 09:47:33;;;;;;;2.38;1.60;;;;;;;2.95;100.00;99648.19;5012583;28;20045;-52
2021/11/30 09:50:02;;;;;;;2.15;1.35;;;;;;;2.95;100.00;99661.28;5007708;28;20133;-52
2021/11/30 09:52:28;;;;;;;1.92;1.13;;;;;;;2.98;100.00;99652.47;5010633;28;20517;-60
2021/11/30 09:54:55;;;;;;;2.92;1.77;;;;;;;2.94;100.00;99649.09;5014141;28;20045;-52
2021/11/30 09:57:22;;;;;;;2.47;1.60;;;;;;;2.99;100.00;99654.19;5015160;28;20514;-56
2021/11/30 09:59:49;;;;;;;3.15;1.60;;;;;;;3.03;100.00;99648.81;5006292;28;20053;-51
2021/11/30 10:02:16;;;;;;;2.83;1.50;;;;;;;2.98;100.00;99626.34;5010326;28;20155;-52
2021/11/30 10:04:43;;;;;;;1.30;1.20;;;;;;;3.03;100.00;99645.34;5016360;28;20119;-53
2021/11/30 10:07:10;;;;;;;1.98;1.33;;;;;;;3.03;100.00;99643.59;5011791;28;20136;-51
2021/11/30 10:09:37;;;;;;;1.30;1.15;;;;;;;3.09;100.00;99643.44;5008531;28;20041;-51
2021/11/30 10:12:06;;;;;;;2.28;1.65;;;;;;;3.09;100.00;99660.88;5019890;28;20038;-53
2021/11/30 10:14:36;;;;;;;3.40;1.52;;;;;;;3.09;100.00;99647.78;5017475;28;20110;-53
2021/11/30 10:17:21;;;;;;;1.50;1.35;;;;;;;3.08;100.00;99654.78;5012228;28;20546;-51
2021/11/30 10:19:55;;;;;;;1.80;1.42;;;;;;;3.06;100.00;99648.75;5009178;28;20052;-52
2021/11/30 10:22:36;;;;;;;2.75;1.67;;;;;;;3.07;100.00;99652.22;5016790;28;20487;-53
2021/11/30 10:25:18;;;;;;;3.67;1.92;;;;;;;3.09;100.00;99647.78;5012861;28;20052;-53
2021/11/30 10:27:56;;;;;;;2.65;1.70;;;;;;;3.12;100.00;99647.72;5013964;28;20046;-53
2021/11/30 10:30:26;;;;;;;2.00;1.80;;;;;;;3.11;100.00;99654.72;5006350;28;20046;-54
2021/11/30 10:32:54;;;;;;;3.75;1.67;;;;;;;3.17;100.00;99651.91;5009973;28;20043;-53
2021/11/30 10:35:24;;;;;;;2.85;1.88;;;;;;;3.16;100.00;99671.09;5018424;28;20052;-52
2021/11/30 10:37:50;;;;;;;2.28;1.70;;;;;;;3.22;100.00;99653.53;5012060;28;20108;-52
2021/11/30 10:40:22;;;;;;;2.92;1.80;;;;;;;3.18;100.00;99648.38;5009204;28;20038;-53
2021/11/30 10:42:55;;;;;;;3.10;2.40;;;;;;;3.19;100.00;99654.47;5009241;28;20058;-54
2021/11/30 10:45:38;;;;;;;2.78;1.73;;;;;;;3.20;100.00;99645.72;5011810;28;20050;-53
2021/11/30 10:48:07;;;;;;;2.83;2.15;;;;;;;3.22;100.00;99649.16;5012920;28;20767;-54
2021/11/30 10:50:36;;;;;;;3.83;2.25;;;;;;;3.28;100.00;99650.75;5010417;28;20053;-52
2021/11/30 10:53:21;;;;;;;4.30;1.90;;;;;;;3.30;100.00;99659.41;5011133;28;20046;-52
2021/11/30 10:55:54;;;;;;;3.83;2.42;;;;;;;3.28;100.00;99645.50;5017784;28;20132;-55
2021/11/30 10:58:23;;;;;;;2.53;2.33;;;;;;;3.32;100.00;99634.03;5014017;28;20399;-53
2021/11/30 11:00:50;;;;;;;3.15;2.50;;;;;;;3.30;100.00;99636.72;5013912;28;20492;-53
2021/11/30 11:03:21;;;;;;;6.53;3.03;;;;;;;3.35;100.00;99628.72;5013457;28;20052;-53
2021/11/30 11:08:42;;;;;;;3.00;2.70;;;;;;;3.43;100.00;99631.97;5012457;28;20113;-51
2021/11/30 11:11:11;;;;;;;6.18;2.67;;;;;;;3.45;100.00;99630.16;5012580;28;20054;-53
2021/11/30 11:13:39;;;;;;;5.10;2.83;;;;;;;3.48;100.00;99627.44;5007590;28;20049;-52
2021/11/30 11:16:08;;;;;;;5.70;3.03;;;;;;;3.44;100.00;99623.22;5013036;28;20060;-51
2021/11/30 11:18:37;;;;;;;4.28;2.95;;;;;;;3.43;100.00;99626.75;5012425;28;20045;-53
2021/11/30 11:21:12;;;;;;;5.13;3.05;;;;;;;3.44;100.00;99624.09;5019757;28;20056;-53
2021/11/30 11:23:42;;;;;;;4.50;3.00;;;;;;;3.55;100.00;99622.88;5002718;28;20411;-52
2021/11/30 11:26:21;;;;;;;3.50;2.97;;;;;;;3.56;100.00;99627.22;5012402;28;20111;-52
2021/11/30 11:28:49;;;;;;;3.17;2.80;;;;;;;3.55;100.00;99623.75;5008595;28;20049;-53
2021/11/30 11:31:16;;;;;;;5.15;3.53;;;;;;;3.53;100.00;99618.56;5009548;28;20491;-53
2021/11/30 11:33:43;;;;;;;3.92;3.28;;;;;;;3.53;100.00;99620.31;5001996;28;20061;-52
2021/11/30 11:36:10;;;;;;;4.35;3.47;;;;;;;3.51;100.00;99612.50;5009968;28;20054;-53
2021/11/30 11:38:38;;;;;;;5.00;3.45;;;;;;;3.44;100.00;99599.66;5007903;28;20052;-53
2021/11/30 11:41:06;;;;;;;4.95;3.63;;;;;;;3.57;100.00;99610.59;5013525;28;20632;-52
2021/11/30 11:43:33;;;;;;;4.85;3.72;;;;;;;3.59;100.00;99596.56;5007970;28;20060;-52
2021/11/30 11:45:59;;;;;;;4.30;3.28;;;;;;;3.56;100.00;99586.19;5010677;28;21090;-53